Time;durP1;ratioP1;P1;durP2;ratioP2;P2;SDS_P1;SDS_P2;PMS_P1;PMS_P2;Temp;Humidity;BMP_temperature;BMP_pressure;BME280_temperature;BME280_humidity;BME280_pressure;Samples;Min_cycle;Max_cycle;Signal;HPM_P1;HPM_P2
2023/01/02 00:00:58;;;;;;;;;4.00;3.50;;;;;14.68;70.34;99435.19;5036893;28;8840;-60
2023/01/02 00:03:26;;;;;;;;;3.00;3.00;;;;;14.69;70.28;99439.53;5037213;28;8844;-60
2023/01/02 00:05:55;;;;;;;;;3.00;3.00;;;;;14.73;70.29;99435.53;5037038;28;8855;-60
2023/01/02 00:08:22;;;;;;;;;3.00;2.50;;;;;14.75;70.20;99428.19;5037023;28;8863;-60
2023/01/02 00:10:50;;;;;;;;;3.00;3.00;;;;;14.78;69.89;99433.19;5036959;28;8846;-60
2023/01/02 00:13:19;;;;;;;;;3.00;3.00;;;;;14.80;69.20;99437.41;5037188;28;8922;-59
2023/01/02 00:15:47;;;;;;;;;3.25;3.00;;;;;14.83;69.62;99444.28;5037195;28;8987;-60
2023/01/02 00:18:15;;;;;;;;;5.00;4.00;;;;;14.82;70.03;99427.38;5037110;28;8987;-60
2023/01/02 00:20:43;;;;;;;;;2.00;2.00;;;;;14.84;69.84;99443.28;5036901;28;8853;-59
2023/01/02 00:23:11;;;;;;;;;3.00;3.00;;;;;14.84;69.52;99430.75;5037065;28;8839;-59
2023/01/02 00:25:39;;;;;;;;;3.00;3.00;;;;;14.86;69.25;99446.66;5036202;28;8828;-59
2023/01/02 00:28:06;;;;;;;;;3.00;3.00;;;;;14.88;69.55;99420.53;5037005;28;8829;-58
2023/01/02 00:30:34;;;;;;;;;2.00;2.00;;;;;14.88;69.63;99412.50;5036921;28;9565;-59
2023/01/02 00:33:05;;;;;;;;;2.00;2.00;;;;;14.92;69.68;99419.19;5036671;28;8943;-58
2023/01/02 00:35:33;;;;;;;;;1.50;1.50;;;;;14.96;69.11;99431.28;5036774;28;8837;-60
2023/01/02 00:38:00;;;;;;;;;3.00;3.00;;;;;15.01;69.16;99426.28;5036362;28;8817;-59
2023/01/02 00:40:28;;;;;;;;;5.00;4.00;;;;;15.07;68.32;99425.59;5036290;28;8841;-58
2023/01/02 00:42:56;;;;;;;;;3.50;3.50;;;;;15.11;68.20;99433.16;5037110;28;9532;-59
2023/01/02 00:45:24;;;;;;;;;2.20;1.00;;;;;15.15;68.25;99415.75;5036676;28;9503;-59
2023/01/02 00:47:51;;;;;;;;;3.00;3.00;;;;;15.22;67.62;99426.66;5036933;28;8853;-58
2023/01/02 00:50:19;;;;;;;;;1.50;1.50;;;;;15.29;67.00;99425.84;5036608;28;9498;-58
2023/01/02 00:52:47;;;;;;;;;0.00;0.00;;;;;15.34;66.80;99420.88;5036075;28;8829;-60
2023/01/02 00:55:14;;;;;;;;;3.00;3.00;;;;;15.33;66.85;99437.13;5036175;28;8821;-58
2023/01/02 00:57:42;;;;;;;;;3.50;3.00;;;;;15.23;67.15;99422.97;5036446;28;8836;-60
2023/01/02 01:00:10;;;;;;;;;2.00;2.00;;;;;15.15;67.17;99434.53;5036153;28;8971;-58
2023/01/02 01:02:38;;;;;;;;;3.50;2.00;;;;;15.03;67.64;99432.31;5036544;28;8876;-58
2023/01/02 01:05:06;;;;;;;;;3.25;3.25;;;;;14.84;67.45;99440.59;5036328;28;8842;-60
2023/01/02 01:07:34;;;;;;;;;3.00;1.00;;;;;14.68;68.41;99430.66;5035346;28;8833;-59
2023/01/02 01:10:01;;;;;;;;;3.75;3.00;;;;;14.60;67.91;99427.94;5036316;28;8837;-58
2023/01/02 01:12:29;;;;;;;;;3.75;3.50;;;;;14.56;68.62;99433.78;5035639;28;8824;-59
2023/01/02 01:14:57;;;;;;;;;2.50;2.50;;;;;14.53;68.59;99418.88;5035957;28;9543;-60
2023/01/02 01:17:24;;;;;;;;;5.00;3.00;;;;;14.49;68.69;99425.53;5035990;28;8845;-59
2023/01/02 01:19:52;;;;;;;;;1.00;1.00;;;;;14.43;69.00;99425.34;5035717;28;8824;-57
2023/01/02 01:22:20;;;;;;;;;3.00;1.00;;;;;14.39;69.25;99422.13;5035741;28;8824;-58
2023/01/02 01:24:48;;;;;;;;;5.50;4.00;;;;;14.41;69.23;99413.94;5035688;28;8852;-60
2023/01/02 01:27:15;;;;;;;;;4.00;3.25;;;;;14.45;68.87;99409.94;5035821;28;8844;-59
2023/01/02 01:29:43;;;;;;;;;4.00;2.50;;;;;14.48;68.82;99421.19;5035781;28;8825;-60
2023/01/02 01:32:11;;;;;;;;;3.25;3.25;;;;;14.53;68.55;99409.97;5035253;28;8825;-59
2023/01/02 01:34:39;;;;;;;;;1.00;1.00;;;;;14.50;69.10;99410.31;5035866;28;8828;-58
2023/01/02 01:37:06;;;;;;;;;3.75;3.75;;;;;14.50;68.60;99407.63;5036041;28;8844;-59
2023/01/02 01:39:34;;;;;;;;;2.00;2.00;;;;;14.53;68.99;99412.66;5035251;28;8883;-58
2023/01/02 01:42:02;;;;;;;;;3.75;3.25;;;;;14.59;68.53;99417.38;5035684;28;8825;-58
2023/01/02 01:44:30;;;;;;;;;3.75;3.75;;;;;14.63;68.64;99410.72;5035182;28;8829;-58
2023/01/02 01:46:58;;;;;;;;;4.00;3.25;;;;;14.63;68.30;99418.75;5034774;28;8872;-58
2023/01/02 01:49:25;;;;;;;;;4.50;4.50;;;;;14.62;68.54;99419.72;5035753;28;8852;-59
2023/01/02 01:51:53;;;;;;;;;3.75;3.75;;;;;14.59;68.90;99422.75;5035551;28;8817;-60
2023/01/02 01:54:21;;;;;;;;;4.00;3.25;;;;;14.57;68.60;99425.56;5035740;28;8816;-57
2023/01/02 01:56:49;;;;;;;;;3.00;3.00;;;;;14.55;68.77;99424.91;5035787;28;8820;-58
2023/01/02 01:59:17;;;;;;;;;3.00;3.00;;;;;14.55;68.58;99410.66;5035432;28;8825;-59
2023/01/02 02:01:44;;;;;;;;;4.75;3.25;;;;;14.56;68.52;99417.72;5034352;28;8837;-60
2023/01/02 02:04:12;;;;;;;;;2.00;2.00;;;;;14.57;68.56;99425.56;5034096;28;8989;-58
2023/01/02 02:06:40;;;;;;;;;5.00;4.00;;;;;14.57;68.44;99430.94;5035851;28;8852;-60
2023/01/02 02:09:08;;;;;;;;;1.00;1.00;;;;;14.63;68.44;99424.13;5039510;28;8840;-60
2023/01/02 02:11:36;;;;;;;;;3.75;3.00;;;;;14.67;68.90;99426.31;5039036;28;8828;-58
2023/01/02 02:14:03;;;;;;;;;3.00;3.00;;;;;14.68;67.83;99421.78;5039735;28;9529;-60
2023/01/02 02:16:31;;;;;;;;;3.00;3.00;;;;;14.54;68.80;99436.63;5039310;28;8843;-59
2023/01/02 02:18:58;;;;;;;;;1.00;1.00;;;;;14.28;69.49;99440.31;5038387;28;9511;-58
2023/01/02 02:21:26;;;;;;;;;1.00;0.00;;;;;14.07;70.16;99431.75;5039042;28;8829;-60
2023/01/02 02:23:54;;;;;;;;;1.00;1.00;;;;;13.95;70.33;99433.84;5037895;28;8853;-59
2023/01/02 02:26:22;;;;;;;;;3.25;3.25;;;;;13.91;71.11;99439.66;5038792;28;8867;-59
2023/01/02 02:28:50;;;;;;;;;1.00;1.00;;;;;13.92;70.60;99431.50;5038826;28;8825;-60
2023/01/02 02:31:17;;;;;;;;;0.75;0.50;;;;;14.01;70.80;99432.38;5038569;28;8959;-58
2023/01/02 02:33:45;;;;;;;;;2.50;1.00;;;;;14.09;70.10;99419.03;5038805;28;8835;-58
2023/01/02 02:36:13;;;;;;;;;4.00;3.25;;;;;14.13;70.22;99425.78;5038558;28;8833;-59
2023/01/02 02:38:41;;;;;;;;;4.50;4.00;;;;;14.20;70.03;99429.56;5038956;28;8864;-57
2023/01/02 02:41:08;;;;;;;;;3.50;3.50;;;;;14.28;69.89;99430.44;5039017;28;8828;-58
2023/01/02 02:43:36;;;;;;;;;4.00;4.00;;;;;14.33;69.49;99430.81;5039206;28;8821;-59
2023/01/02 02:46:04;;;;;;;;;2.00;2.00;;;;;14.33;69.69;99433.47;5037898;28;8859;-59
2023/01/02 02:48:32;;;;;;;;;3.00;2.50;;;;;14.40;68.61;99433.69;5038845;28;8837;-59
2023/01/02 02:50:59;;;;;;;;;2.00;2.00;;;;;14.47;68.72;99427.53;5037970;28;8832;-58
2023/01/02 02:53:27;;;;;;;;;3.00;3.00;;;;;14.54;68.39;99415.19;5038894;28;8825;-60
2023/01/02 02:55:54;;;;;;;;;3.00;2.50;;;;;14.59;68.48;99414.72;5038605;28;8841;-60
2023/01/02 02:58:23;;;;;;;;;4.50;4.50;;;;;14.61;68.68;99410.00;5038600;28;8844;-57
2023/01/02 03:00:50;;;;;;;;;0.75;0.75;;;;;14.59;68.46;99403.97;5038363;28;8829;-60
2023/01/02 03:03:18;;;;;;;;;3.50;2.00;;;;;14.51;68.60;99403.94;5038637;28;8829;-60
2023/01/02 03:05:46;;;;;;;;;1.50;1.50;;;;;14.41;68.47;99403.22;5038289;28;8836;-57
2023/01/02 03:08:13;;;;;;;;;5.00;3.50;;;;;14.43;68.63;99403.91;5038613;28;8825;-57
2023/01/02 03:10:42;;;;;;;;;1.75;0.75;;;;;14.49;68.29;99406.78;5038263;28;8860;-57
2023/01/02 03:13:09;;;;;;;;;2.00;2.00;;;;;14.57;68.13;99404.13;5037782;28;8864;-58
2023/01/02 03:15:37;;;;;;;;;1.00;1.00;;;;;14.61;67.85;99415.38;5038108;28;9510;-58
2023/01/02 03:18:04;;;;;;;;;3.50;3.50;;;;;14.63;68.04;99410.72;5038036;28;8860;-58
2023/01/02 03:20:32;;;;;;;;;3.50;3.00;;;;;14.60;68.30;99405.66;5037545;28;8879;-58
2023/01/02 03:23:00;;;;;;;;;2.50;1.00;;;;;14.60;67.23;99408.34;5037855;28;8848;-57
2023/01/02 03:25:28;;;;;;;;;1.00;1.00;;;;;14.50;67.70;99402.28;5038150;28;8841;-57
2023/01/02 03:27:55;;;;;;;;;3.00;3.00;;;;;14.36;68.27;99403.69;5037840;28;8825;-59
2023/01/02 03:30:23;;;;;;;;;0.50;0.25;;;;;14.24;68.49;99404.13;5038180;28;8833;-60
2023/01/02 03:32:51;;;;;;;;;2.00;2.00;;;;;14.11;68.66;99401.84;5038259;28;8902;-60
2023/01/02 03:35:19;;;;;;;;;3.75;3.25;;;;;13.97;69.27;99393.53;5038016;28;8829;-59
2023/01/02 03:37:47;;;;;;;;;3.00;3.00;;;;;13.86;70.03;99399.13;5038169;28;8839;-60
2023/01/02 03:40:14;;;;;;;;;2.50;2.50;;;;;13.75;69.50;99397.53;5037955;28;8821;-59
2023/01/02 03:42:42;;;;;;;;;3.00;3.00;;;;;13.65;70.06;99391.47;5037463;28;8974;-59
2023/01/02 03:45:09;;;;;;;;;4.50;3.25;;;;;13.58;70.60;99386.88;5037623;28;8860;-60
2023/01/02 03:47:37;;;;;;;;;3.00;3.00;;;;;13.58;70.41;99382.38;5037687;28;8843;-60
2023/01/02 03:50:05;;;;;;;;;3.50;3.25;;;;;13.65;70.30;99409.34;5037842;28;8843;-59
2023/01/02 03:52:33;;;;;;;;;4.75;3.50;;;;;13.77;70.12;99418.81;5037687;28;8832;-60
2023/01/02 03:55:00;;;;;;;;;4.00;4.00;;;;;13.88;70.01;99427.44;5037602;28;8860;-60
2023/01/02 03:57:28;;;;;;;;;6.00;5.00;;;;;13.96;69.59;99419.47;5038037;28;9565;-60
2023/01/02 03:59:56;;;;;;;;;3.00;2.50;;;;;14.04;69.65;99427.56;5037797;28;8855;-60
2023/01/02 04:02:23;;;;;;;;;3.50;3.50;;;;;14.10;69.26;99426.94;5037308;28;8825;-60
2023/01/02 04:04:51;;;;;;;;;1.50;1.50;;;;;14.12;69.12;99418.75;5037725;28;9578;-60
2023/01/02 04:07:19;;;;;;;;;3.25;2.50;;;;;14.10;69.32;99415.38;5037494;28;9224;-60
2023/01/02 04:09:46;;;;;;;;;1.00;1.00;;;;;14.06;69.78;99414.88;5037328;28;8841;-58
2023/01/02 04:12:14;;;;;;;;;3.00;3.00;;;;;14.00;69.35;99420.84;5036968;28;8835;-58
2023/01/02 04:14:42;;;;;;;;;4.25;3.75;;;;;14.03;69.32;99425.06;5037022;28;8914;-58
2023/01/02 04:17:10;;;;;;;;;3.00;1.50;;;;;14.08;69.29;99415.53;5036248;28;8864;-59
2023/01/02 04:19:37;;;;;;;;;2.00;2.00;;;;;14.11;68.70;99433.16;5036646;28;8848;-59
2023/01/02 04:22:05;;;;;;;;;5.00;4.00;;;;;14.03;68.72;99414.34;5036640;28;8840;-58
2023/01/02 04:24:32;;;;;;;;;2.75;2.75;;;;;13.91;69.37;99420.94;5036703;28;8916;-59
2023/01/02 04:27:00;;;;;;;;;4.25;3.50;;;;;13.76;69.77;99420.66;5036388;28;8848;-60
2023/01/02 04:29:28;;;;;;;;;3.50;3.50;;;;;13.62;70.08;99437.25;5036514;28;8858;-59
2023/01/02 04:31:55;;;;;;;;;4.00;3.00;;;;;13.53;70.11;99438.16;5035978;28;8914;-58
2023/01/02 04:34:23;;;;;;;;;3.75;3.75;;;;;13.43;70.97;99455.31;5036937;28;8825;-60
2023/01/02 04:36:51;;;;;;;;;3.75;3.75;;;;;13.33;71.18;99446.47;5037073;28;9546;-58
2023/01/02 04:39:19;;;;;;;;;3.00;3.00;;;;;13.27;71.44;99445.25;5036781;28;8820;-57
2023/01/02 04:41:46;;;;;;;;;3.00;3.00;;;;;13.19;71.53;99444.31;5036182;28;8864;-59
2023/01/02 04:44:14;;;;;;;;;2.00;1.50;;;;;13.09;71.82;99430.19;5036256;28;9595;-57
2023/01/02 04:46:42;;;;;;;;;3.00;3.00;;;;;12.99;71.89;99424.06;5036077;28;8891;-59
2023/01/02 04:49:10;;;;;;;;;1.00;1.00;;;;;12.90;72.20;99417.75;5036729;28;9587;-58
2023/01/02 04:51:37;;;;;;;;;3.50;3.25;;;;;12.84;72.23;99422.84;5036573;28;8829;-59
2023/01/02 04:54:05;;;;;;;;;4.75;3.75;;;;;12.77;72.90;99422.59;5036033;28;8828;-59
2023/01/02 04:56:33;;;;;;;;;4.00;4.00;;;;;12.72;73.07;99432.91;5035837;28;8832;-60
2023/01/02 04:59:00;;;;;;;;;3.75;3.75;;;;;12.68;73.16;99444.03;5036326;28;8829;-57
2023/01/02 05:01:29;;;;;;;;;1.50;1.50;;;;;12.64;73.60;99432.81;5035649;28;8843;-60
2023/01/02 05:03:56;;;;;;;;;3.25;3.00;;;;;12.62;73.80;99441.94;5035306;28;8840;-59
2023/01/02 05:06:24;;;;;;;;;5.50;5.00;;;;;12.65;73.25;99449.66;5035667;28;8829;-59
2023/01/02 05:08:52;;;;;;;;;3.00;3.00;;;;;12.71;73.39;99441.06;5035586;28;8832;-59
2023/01/02 05:11:19;;;;;;;;;3.75;3.75;;;;;12.77;73.13;99443.13;5035273;28;8837;-57
2023/01/02 05:13:48;;;;;;;;;3.00;3.00;;;;;12.84;73.21;99433.53;5035473;28;8836;-59
2023/01/02 05:16:15;;;;;;;;;3.00;3.00;;;;;12.89;73.42;99447.28;5035304;28;8848;-59
2023/01/02 05:18:43;;;;;;;;;3.50;3.00;;;;;12.94;72.97;99450.34;5035033;28;8841;-59
2023/01/02 05:23:47;;;;;;;;;3.00;3.00;;;;;13.00;73.39;99450.63;5035635;28;8828;-59
2023/01/02 05:23:58;;;;;;;;;5.25;4.00;;;;;13.05;73.33;99461.72;5035555;28;8832;-59
2023/01/02 05:26:26;;;;;;;;;3.00;3.00;;;;;13.12;72.49;99459.28;5034239;28;8851;-57
2023/01/02 05:28:53;;;;;;;;;3.00;3.00;;;;;13.22;72.51;99449.38;5034053;28;8844;-58
2023/01/02 05:31:21;;;;;;;;;2.75;2.25;;;;;13.29;72.40;99469.19;5033871;28;8825;-57
2023/01/02 05:33:49;;;;;;;;;3.00;3.00;;;;;13.33;72.34;99467.88;5034198;28;8828;-59
2023/01/02 05:36:17;;;;;;;;;3.50;3.00;;;;;13.36;71.93;99478.28;5034460;28;8845;-59
2023/01/02 05:38:45;;;;;;;;;3.00;3.00;;;;;13.39;72.67;99475.31;5034650;28;8845;-58
2023/01/02 05:41:13;;;;;;;;;3.00;2.50;;;;;13.36;72.11;99472.94;5034711;28;8849;-60
2023/01/02 05:43:41;;;;;;;;;5.00;3.25;;;;;13.37;72.82;99474.63;5035056;28;8836;-57
2023/01/02 05:46:09;;;;;;;;;3.00;3.00;;;;;13.41;72.83;99475.97;5035443;28;8824;-59
2023/01/02 05:48:37;;;;;;;;;3.75;3.00;;;;;13.49;72.54;99470.72;5035349;28;8983;-57
2023/01/02 05:51:04;;;;;;;;;3.75;3.25;;;;;13.60;71.68;99465.97;5035277;28;8859;-59
2023/01/02 05:53:32;;;;;;;;;3.75;3.75;;;;;13.68;71.62;99473.25;5035278;28;8813;-57
2023/01/02 05:56:00;;;;;;;;;5.50;4.00;;;;;13.76;71.28;99473.34;5035513;28;8863;-57
2023/01/02 05:58:27;;;;;;;;;2.50;2.50;;;;;13.82;71.75;99476.22;5034977;28;8809;-59
2023/01/02 06:00:55;;;;;;;;;3.00;3.00;;;;;13.86;70.68;99479.44;5035029;28;8859;-59
2023/01/02 06:03:23;;;;;;;;;6.00;5.50;;;;;13.89;70.85;99476.47;5035125;28;8864;-58
2023/01/02 06:05:51;;;;;;;;;3.00;3.00;;;;;13.90;70.49;99472.78;5034897;28;8847;-59
2023/01/02 06:08:18;;;;;;;;;3.00;2.50;;;;;13.91;70.89;99469.97;5034852;28;8824;-59
2023/01/02 06:10:46;;;;;;;;;3.00;3.00;;;;;13.97;70.27;99489.91;5035161;28;8866;-59
2023/01/02 06:13:14;;;;;;;;;3.00;1.00;;;;;14.02;69.83;99484.91;5034770;28;9529;-59
2023/01/02 06:15:42;;;;;;;;;2.75;2.00;;;;;13.99;70.33;99483.41;5034845;28;8859;-60
2023/01/02 06:18:10;;;;;;;;;2.00;2.00;;;;;13.97;70.62;99493.41;5034845;28;8879;-59
2023/01/02 06:20:37;;;;;;;;;2.50;2.50;;;;;13.93;70.07;99488.53;5034702;28;8880;-60
2023/01/02 06:23:05;;;;;;;;;4.50;4.00;;;;;13.86;69.97;99492.81;5034537;28;8835;-59
2023/01/02 06:25:33;;;;;;;;;5.00;5.00;;;;;13.79;70.42;99487.25;5034613;28;8855;-59
2023/01/02 06:28:01;;;;;;;;;3.25;3.25;;;;;13.75;70.36;99491.22;5034345;28;8837;-60
2023/01/02 06:30:28;;;;;;;;;4.00;3.50;;;;;13.72;70.59;99501.38;5034889;28;9522;-61
2023/01/02 06:32:56;;;;;;;;;4.50;4.50;;;;;13.68;70.44;99494.66;5034596;28;8886;-60
2023/01/02 06:35:23;;;;;;;;;3.50;2.75;;;;;13.65;70.80;99494.94;5035120;28;8832;-60
2023/01/02 06:37:51;;;;;;;;;2.50;1.00;;;;;13.63;70.33;99489.78;5034447;28;8868;-61
2023/01/02 06:40:19;;;;;;;;;3.00;3.00;;;;;13.63;70.49;99500.47;5034511;28;8848;-60
2023/01/02 06:42:47;;;;;;;;;5.00;5.00;;;;;13.65;70.95;99502.97;5034876;28;8820;-58
2023/01/02 06:45:15;;;;;;;;;3.00;3.00;;;;;13.70;70.65;99500.69;5034539;28;8832;-61
2023/01/02 06:47:42;;;;;;;;;1.50;1.50;;;;;13.72;70.88;99501.38;5034288;28;8873;-59
2023/01/02 06:50:10;;;;;;;;;2.50;2.50;;;;;13.78;70.68;99511.47;5034185;28;8840;-58
2023/01/02 06:52:38;;;;;;;;;3.25;3.25;;;;;13.82;70.23;99504.84;5033694;28;8845;-60
2023/01/02 06:55:05;;;;;;;;;2.50;2.50;;;;;13.83;69.97;99507.34;5036648;28;8824;-59
2023/01/02 06:57:33;;;;;;;;;3.00;3.00;;;;;13.86;70.22;99506.19;5037662;28;8866;-60
2023/01/02 07:00:01;;;;;;;;;3.75;3.75;;;;;13.88;69.92;99512.28;5037283;28;8848;-59
2023/01/02 07:02:29;;;;;;;;;2.50;2.50;;;;;13.89;70.13;99503.25;5037581;28;8836;-60
2023/01/02 07:04:57;;;;;;;;;3.00;1.00;;;;;13.90;70.44;99512.94;5037831;28;8845;-60
2023/01/02 07:07:25;;;;;;;;;0.50;0.50;;;;;13.91;70.02;99506.59;5037471;28;8828;-59
2023/01/02 07:09:52;;;;;;;;;5.00;5.00;;;;;13.91;69.91;99511.94;5037415;28;8888;-59
2023/01/02 07:12:20;;;;;;;;;1.00;1.00;;;;;13.93;69.49;99520.66;5036342;28;8833;-58
2023/01/02 07:14:48;;;;;;;;;0.00;0.00;;;;;13.92;69.42;99518.97;5036506;28;8832;-60
2023/01/02 07:17:16;;;;;;;;;3.50;3.50;;;;;13.91;69.72;99518.16;5036117;28;8875;-60
2023/01/02 07:19:43;;;;;;;;;4.00;4.00;;;;;13.90;69.60;99526.34;5035890;28;8986;-59
2023/01/02 07:22:19;;;;;;;;;3.50;3.00;;;;;13.90;69.99;99529.00;5037022;28;8937;-61
2023/01/02 07:24:47;;;;;;;;;6.00;4.00;;;;;13.87;69.64;99524.78;5037035;28;8832;-61
2023/01/02 07:27:15;;;;;;;;;3.75;3.75;;;;;13.87;69.45;99521.25;5036771;28;8829;-61
2023/01/02 07:29:43;;;;;;;;;3.00;1.50;;;;;13.87;70.07;99526.63;5036114;28;8869;-61
2023/01/02 07:32:11;;;;;;;;;2.50;2.50;;;;;13.87;69.70;99534.66;5036690;28;9557;-60
2023/01/02 07:34:39;;;;;;;;;4.00;3.00;;;;;13.86;69.27;99538.31;5035781;28;8873;-61
2023/01/02 07:37:06;;;;;;;;;1.00;1.00;;;;;13.80;69.70;99544.28;5036394;28;8911;-61
2023/01/02 07:39:35;;;;;;;;;3.00;3.00;;;;;13.78;69.44;99547.13;5036247;28;8844;-60
2023/01/02 07:42:02;;;;;;;;;3.50;3.50;;;;;13.78;69.84;99546.28;5035312;28;8848;-60
2023/01/02 07:44:30;;;;;;;;;3.00;3.00;;;;;13.78;69.90;99532.88;5035513;28;8860;-61
2023/01/02 07:46:58;;;;;;;;;3.00;3.00;;;;;13.75;69.57;99546.59;5035878;28;8975;-61
2023/01/02 07:49:25;;;;;;;;;3.00;3.00;;;;;13.70;70.05;99544.38;5035742;28;8854;-59
2023/01/02 07:51:54;;;;;;;;;4.00;4.00;;;;;13.68;69.99;99553.53;5035503;28;9526;-61
2023/01/02 07:54:21;;;;;;;;;3.00;3.00;;;;;13.66;70.41;99550.19;5035742;28;8870;-60
2023/01/02 07:56:49;;;;;;;;;4.00;4.00;;;;;13.66;70.16;99560.88;5035576;28;8839;-60
2023/01/02 07:59:17;;;;;;;;;2.00;2.00;;;;;13.63;70.17;99562.03;5035720;28;8836;-60
2023/01/02 08:01:44;;;;;;;;;4.50;3.00;;;;;13.60;70.11;99566.81;5035567;28;8837;-59
2023/01/02 08:04:12;;;;;;;;;3.00;3.00;;;;;13.52;70.74;99574.75;5036037;28;9660;-60
2023/01/02 08:06:41;;;;;;;;;2.00;2.00;;;;;13.45;70.51;99584.38;5035897;28;8851;-59
2023/01/02 08:09:08;;;;;;;;;1.50;1.00;;;;;13.37;70.82;99582.44;5036498;28;8871;-59
2023/01/02 08:11:36;;;;;;;;;3.25;3.25;;;;;13.30;71.15;99586.69;5036388;28;8855;-60
2023/01/02 08:14:04;;;;;;;;;4.00;3.75;;;;;13.24;71.18;99594.47;5036483;28;8878;-60
2023/01/02 08:16:32;;;;;;;;;2.50;2.50;;;;;13.15;71.84;99590.81;5036738;28;8824;-59
2023/01/02 08:19:00;;;;;;;;;3.50;3.25;;;;;13.00;72.15;99588.78;5036563;28;8832;-58
2023/01/02 08:21:27;;;;;;;;;3.75;3.00;;;;;12.83;72.65;99594.88;5036670;28;8851;-59
2023/01/02 08:23:55;;;;;;;;;3.50;3.00;;;;;12.69;73.02;99596.13;5035740;28;8922;-60
2023/01/02 08:26:24;;;;;;;;;4.00;4.00;;;;;12.62;73.60;99604.88;5035858;28;8848;-60
2023/01/02 08:28:52;;;;;;;;;3.00;3.00;;;;;12.57;73.75;99617.81;5035560;28;8851;-61
2023/01/02 08:31:20;;;;;;;;;3.25;3.00;;;;;12.55;73.90;99627.81;5036194;28;8829;-59
2023/01/02 08:33:48;;;;;;;;;3.00;3.00;;;;;12.55;73.95;99619.81;5035434;28;9527;-61
2023/01/02 08:36:16;;;;;;;;;5.00;5.00;;;;;12.53;74.27;99643.16;5034977;28;9612;-59
2023/01/02 08:38:43;;;;;;;;;2.00;2.00;;;;;12.51;73.99;99627.25;5034887;28;8836;-59
2023/01/02 08:41:11;;;;;;;;;3.00;3.00;;;;;12.48;74.44;99646.25;5034704;28;8910;-60
2023/01/02 08:43:40;;;;;;;;;2.00;1.00;;;;;12.43;74.76;99650.28;5034915;28;8888;-60
2023/01/02 08:46:08;;;;;;;;;2.50;2.50;;;;;12.38;74.87;99649.91;5034764;28;8856;-60
2023/01/02 08:48:36;;;;;;;;;1.00;1.00;;;;;12.31;75.45;99648.78;5034361;28;8868;-59
2023/01/02 08:51:03;;;;;;;;;1.00;1.00;;;;;12.25;75.80;99655.50;5033737;28;8832;-61
2023/01/02 08:53:31;;;;;;;;;2.50;2.50;;;;;12.20;75.51;99667.56;5034161;28;8836;-61
2023/01/02 08:55:59;;;;;;;;;3.50;3.50;;;;;12.16;76.21;99668.84;5033851;28;8844;-61
2023/01/02 08:58:27;;;;;;;;;1.00;1.00;;;;;12.13;76.27;99675.31;5033785;28;8855;-61
2023/01/02 09:00:55;;;;;;;;;3.00;2.00;;;;;12.12;76.17;99680.78;5034122;28;8840;-58
2023/01/02 09:03:23;;;;;;;;;1.00;1.00;;;;;12.08;76.35;99690.06;5034049;28;8862;-60
2023/01/02 09:05:52;;;;;;;;;3.25;3.25;;;;;12.08;76.80;99687.38;5033246;28;8958;-60
2023/01/02 09:08:20;;;;;;;;;1.50;1.50;;;;;12.09;76.48;99694.41;5032204;28;8829;-61
2023/01/02 09:10:48;;;;;;;;;0.00;0.00;;;;;12.07;76.74;99704.38;5031992;28;8864;-61
2023/01/02 09:13:15;;;;;;;;;0.25;0.25;;;;;12.04;76.92;99715.31;5032062;28;8848;-59
2023/01/02 09:15:43;;;;;;;;;1.00;1.00;;;;;12.02;77.05;99712.78;5033199;28;8832;-61
2023/01/02 09:18:12;;;;;;;;;3.00;3.00;;;;;12.00;77.40;99720.09;5032643;28;9292;-61
2023/01/02 09:20:40;;;;;;;;;3.00;3.00;;;;;12.00;77.37;99720.09;5033578;28;8829;-61
2023/01/02 09:23:08;;;;;;;;;2.00;1.50;;;;;11.98;77.74;99714.03;5034196;28;8926;-61
2023/01/02 09:25:36;;;;;;;;;0.75;0.75;;;;;11.98;77.63;99721.19;5033753;28;8853;-60
2023/01/02 09:28:04;;;;;;;;;2.00;2.00;;;;;11.97;77.41;99734.69;5034476;28;8968;-60
2023/01/02 09:30:32;;;;;;;;;3.00;3.00;;;;;11.96;77.49;99744.50;5034098;28;8824;-61
2023/01/02 09:33:00;;;;;;;;;0.75;0.75;;;;;11.98;77.48;99739.03;5033811;28;8840;-61
2023/01/02 09:35:28;;;;;;;;;1.00;1.00;;;;;11.98;78.27;99747.88;5033914;28;8848;-61
2023/01/02 09:37:56;;;;;;;;;3.00;3.00;;;;;12.00;77.93;99757.44;5033888;28;8845;-61
2023/01/02 09:40:23;;;;;;;;;0.75;0.75;;;;;12.07;77.89;99761.25;5033378;28;8868;-61
2023/01/02 09:42:52;;;;;;;;;1.00;1.00;;;;;12.17;77.32;99753.28;5034162;28;8836;-61
2023/01/02 09:45:20;;;;;;;;;1.00;1.00;;;;;12.26;77.54;99768.47;5033879;28;8836;-60
2023/01/02 09:47:48;;;;;;;;;3.00;3.00;;;;;12.36;77.11;99772.00;5033751;28;8857;-61
2023/01/02 09:50:16;;;;;;;;;2.00;1.50;;;;;12.44;77.42;99772.16;5033407;28;8840;-61
2023/01/02 09:52:44;;;;;;;;;1.00;1.00;;;;;12.49;76.39;99769.94;5033705;28;8844;-60
2023/01/02 09:55:13;;;;;;;;;3.00;3.00;;;;;12.47;76.93;99788.75;5034625;28;8837;-59
2023/01/02 09:57:41;;;;;;;;;2.00;2.00;;;;;12.27;76.62;99781.69;5033157;28;8836;-60
2023/01/02 10:00:09;;;;;;;;;1.00;1.00;;;;;12.11;77.68;99791.19;5033713;28;8914;-59
2023/01/02 10:02:37;;;;;;;;;1.00;1.00;;;;;11.98;77.53;99806.59;5033804;28;8844;-60
2023/01/02 10:05:05;;;;;;;;;0.75;0.75;;;;;11.89;78.04;99796.72;5033070;28;8844;-59
2023/01/02 10:07:34;;;;;;;;;1.00;0.50;;;;;11.88;78.25;99813.72;5031521;28;8975;-59
2023/01/02 10:10:02;;;;;;;;;5.25;3.00;;;;;11.87;78.16;99816.50;5030635;28;8914;-60
2023/01/02 10:12:30;;;;;;;;;1.50;1.50;;;;;11.86;78.66;99823.69;5029780;28;8866;-60
2023/01/02 10:14:58;;;;;;;;;0.50;0.50;;;;;11.86;78.66;99814.81;5031569;28;8844;-60
2023/01/02 10:17:26;;;;;;;;;1.00;1.00;;;;;11.86;78.45;99817.50;5031821;28;8856;-60
2023/01/02 10:19:54;;;;;;;;;0.75;0.75;;;;;11.92;78.48;99833.84;5031777;28;9534;-60
2023/01/02 10:22:22;;;;;;;;;1.25;0.75;;;;;11.99;78.21;99832.28;5031725;28;8840;-59
2023/01/02 10:24:50;;;;;;;;;1.00;1.00;;;;;12.02;78.13;99843.53;5032877;28;9221;-60
2023/01/02 10:27:18;;;;;;;;;0.00;0.00;;;;;12.06;77.98;99841.44;5032563;28;8853;-58
2023/01/02 10:29:46;;;;;;;;;0.75;0.75;;;;;12.06;77.91;99846.78;5034705;28;8857;-61
2023/01/02 10:32:15;;;;;;;;;0.00;0.00;;;;;12.07;77.51;99848.50;5036653;28;8848;-60
2023/01/02 10:34:43;;;;;;;;;0.00;0.00;;;;;12.04;77.39;99849.63;5037154;28;8832;-59
2023/01/02 10:37:11;;;;;;;;;0.00;0.00;;;;;12.01;76.99;99865.88;5037124;28;8847;-61
2023/01/02 10:39:38;;;;;;;;;1.00;1.00;;;;;11.91;77.61;99863.31;5036552;28;8837;-61
2023/01/02 10:42:06;;;;;;;;;0.00;0.00;;;;;11.81;77.96;99857.91;5035516;28;8849;-60
2023/01/02 10:44:35;;;;;;;;;0.00;0.00;;;;;11.71;78.24;99862.34;5035510;28;8976;-61
2023/01/02 10:47:03;;;;;;;;;1.00;1.00;;;;;11.64;78.34;99860.31;5033486;28;8906;-61
2023/01/02 10:49:33;;;;;;;;;0.00;0.00;;;;;11.57;78.53;99867.13;5034137;28;8850;-58
2023/01/02 10:52:01;;;;;;;;;0.00;0.00;;;;;11.53;78.01;99868.38;5035075;28;8954;-60
2023/01/02 10:54:29;;;;;;;;;0.00;0.00;;;;;11.52;78.32;99861.34;5035072;28;8848;-61
2023/01/02 10:56:57;;;;;;;;;1.00;1.00;;;;;11.52;78.15;99872.03;5036387;28;9628;-61
2023/01/02 10:59:25;;;;;;;;;1.50;0.75;;;;;11.54;78.15;99865.56;5035609;28;8853;-61
2023/01/02 11:01:53;;;;;;;;;1.00;1.00;;;;;11.57;78.06;99870.66;5036551;28;8848;-60
2023/01/02 11:04:21;;;;;;;;;0.75;0.75;;;;;11.58;77.72;99880.38;5036623;28;8825;-61
2023/01/02 11:06:49;;;;;;;;;3.00;3.00;;;;;11.57;77.93;99873.31;5036891;28;8844;-60
2023/01/02 11:09:18;;;;;;;;;3.50;2.00;;;;;11.53;77.67;99879.88;5037507;28;8824;-61
2023/01/02 11:11:47;;;;;;;;;3.00;1.50;;;;;11.49;77.95;99878.44;5036294;28;9506;-60
2023/01/02 11:14:15;;;;;;;;;2.50;2.50;;;;;11.45;78.25;99871.66;5034771;28;9513;-58
2023/01/02 11:16:43;;;;;;;;;2.50;2.50;;;;;11.43;78.02;99870.97;5034772;28;8871;-61
2023/01/02 11:19:11;;;;;;;;;3.50;3.00;;;;;11.45;77.74;99873.50;5035109;28;8883;-60
2023/01/02 11:21:39;;;;;;;;;0.75;0.75;;;;;11.45;78.05;99877.00;5035228;28;8856;-60
2023/01/02 11:24:07;;;;;;;;;3.25;2.00;;;;;11.45;77.72;99870.84;5034655;28;8860;-60
2023/01/02 11:26:35;;;;;;;;;0.00;0.00;;;;;11.42;77.80;99877.28;5034562;28;8978;-61
2023/01/02 11:29:03;;;;;;;;;3.00;3.00;;;;;11.36;78.45;99876.97;5034715;28;8945;-60
2023/01/02 11:31:31;;;;;;;;;1.00;0.50;;;;;11.28;78.49;99885.56;5035777;28;8848;-61
2023/01/02 11:33:59;;;;;;;;;1.00;1.00;;;;;11.21;78.74;99895.06;5036090;28;8862;-60
2023/01/02 11:36:28;;;;;;;;;2.50;2.50;;;;;11.17;78.94;99895.44;5035702;28;8840;-61
2023/01/02 11:38:56;;;;;;;;;2.00;1.00;;;;;11.17;78.37;99896.31;5034729;28;9542;-61
2023/01/02 11:41:24;;;;;;;;;1.25;1.25;;;;;11.17;78.73;99898.09;5034674;28;8836;-61
2023/01/02 11:43:51;;;;;;;;;1.00;1.00;;;;;11.15;78.98;99905.38;5036373;28;8937;-60